sensor_id;sensor_type;location;lat;lon;timestamp;temperature;humidity
66337;SHT30;53139;45.576;5.304;2023-03-11T00:00:37;6.24;97.62
66337;SHT30;53139;45.576;5.304;2023-03-11T00:04:12;6.29;97.98
66337;SHT30;53139;45.576;5.304;2023-03-11T00:07:43;6.30;98.20
66337;SHT30;53139;45.576;5.304;2023-03-11T00:11:16;6.33;98.52
66337;SHT30;53139;45.576;5.304;2023-03-11T00:14:39;6.36;97.81
66337;SHT30;53139;45.576;5.304;2023-03-11T00:18:19;6.36;97.70
66337;SHT30;53139;45.576;5.304;2023-03-11T00:21:50;6.38;97.50
66337;SHT30;53139;45.576;5.304;2023-03-11T00:24:58;6.38;97.67
66337;SHT30;53139;45.576;5.304;2023-03-11T00:28:10;6.36;98.06
66337;SHT30;53139;45.576;5.304;2023-03-11T00:31:27;6.44;97.11
66337;SHT30;53139;45.576;5.304;2023-03-11T00:34:35;6.54;96.53
66337;SHT30;53139;45.576;5.304;2023-03-11T00:38:01;6.48;97.68
66337;SHT30;53139;45.576;5.304;2023-03-11T00:41:34;6.45;98.17
66337;SHT30;53139;45.576;5.304;2023-03-11T00:44:55;6.50;97.09
66337;SHT30;53139;45.576;5.304;2023-03-11T00:47:58;6.38;98.39
66337;SHT30;53139;45.576;5.304;2023-03-11T00:51:18;6.45;97.13
66337;SHT30;53139;45.576;5.304;2023-03-11T00:54:43;6.45;97.27
66337;SHT30;53139;45.576;5.304;2023-03-11T00:58:15;6.41;98.25
66337;SHT30;53139;45.576;5.304;2023-03-11T01:01:26;6.41;98.82
66337;SHT30;53139;45.576;5.304;2023-03-11T01:04:30;6.50;98.41
66337;SHT30;53139;45.576;5.304;2023-03-11T01:07:44;6.47;98.67
66337;SHT30;53139;45.576;5.304;2023-03-11T01:10:45;6.45;98.19
66337;SHT30;53139;45.576;5.304;2023-03-11T01:13:46;6.44;98.36
66337;SHT30;53139;45.576;5.304;2023-03-11T01:16:46;6.38;98.31
66337;SHT30;53139;45.576;5.304;2023-03-11T01:20:00;6.47;98.19
66337;SHT30;53139;45.576;5.304;2023-03-11T01:23:28;6.44;98.19
66337;SHT30;53139;45.576;5.304;2023-03-11T01:27:04;6.33;98.36
66337;SHT30;53139;45.576;5.304;2023-03-11T01:30:38;6.37;98.30
66337;SHT30;53139;45.576;5.304;2023-03-11T01:34:07;6.33;98.06
66337;SHT30;53139;45.576;5.304;2023-03-11T01:37:44;6.34;98.14
66337;SHT30;53139;45.576;5.304;2023-03-11T01:41:12;6.23;98.33
66337;SHT30;53139;45.576;5.304;2023-03-11T01:44:35;6.21;98.39
66337;SHT30;53139;45.576;5.304;2023-03-11T01:47:55;6.19;97.73
66337;SHT30;53139;45.576;5.304;2023-03-11T01:51:17;6.20;98.21
66337;SHT30;53139;45.576;5.304;2023-03-11T01:54:40;6.21;98.39
66337;SHT30;53139;45.576;5.304;2023-03-11T01:58:16;6.21;97.97
66337;SHT30;53139;45.576;5.304;2023-03-11T02:01:42;6.17;98.13
66337;SHT30;53139;45.576;5.304;2023-03-11T02:04:58;6.17;98.27
66337;SHT30;53139;45.576;5.304;2023-03-11T02:08:18;6.21;98.70
66337;SHT30;53139;45.576;5.304;2023-03-11T02:11:31;6.31;98.32
66337;SHT30;53139;45.576;5.304;2023-03-11T02:14:54;6.19;98.70
66337;SHT30;53139;45.576;5.304;2023-03-11T02:18:22;6.21;98.64
66337;SHT30;53139;45.576;5.304;2023-03-11T02:21:46;6.21;98.71
66337;SHT30;53139;45.576;5.304;2023-03-11T02:28:40;6.27;98.52
66337;SHT30;53139;45.576;5.304;2023-03-11T02:32:04;6.27;98.89
66337;SHT30;53139;45.576;5.304;2023-03-11T02:35:32;6.37;98.87
66337;SHT30;53139;45.576;5.304;2023-03-11T02:39:04;6.36;98.96
66337;SHT30;53139;45.576;5.304;2023-03-11T02:42:38;6.42;98.29
66337;SHT30;53139;45.576;5.304;2023-03-11T02:46:16;6.45;98.10
66337;SHT30;53139;45.576;5.304;2023-03-11T02:50:00;6.44;98.69
66337;SHT30;53139;45.576;5.304;2023-03-11T02:53:46;6.47;99.08
66337;SHT30;53139;45.576;5.304;2023-03-11T02:57:21;6.55;98.60
66337;SHT30;53139;45.576;5.304;2023-03-11T03:01:04;6.54;98.82
66337;SHT30;53139;45.576;5.304;2023-03-11T03:04:49;6.63;97.87
66337;SHT30;53139;45.576;5.304;2023-03-11T03:08:32;6.71;98.50
66337;SHT30;53139;45.576;5.304;2023-03-11T03:12:15;6.69;97.66
66337;SHT30;53139;45.576;5.304;2023-03-11T03:15:58;6.72;98.60
66337;SHT30;53139;45.576;5.304;2023-03-11T03:19:41;6.75;97.86
66337;SHT30;53139;45.576;5.304;2023-03-11T03:23:19;6.72;98.87
66337;SHT30;53139;45.576;5.304;2023-03-11T03:27:03;6.74;98.36
66337;SHT30;53139;45.576;5.304;2023-03-11T03:30:39;6.82;98.49
66337;SHT30;53139;45.576;5.304;2023-03-11T03:34:20;6.81;98.22
66337;SHT30;53139;45.576;5.304;2023-03-11T03:38:07;6.85;98.87
66337;SHT30;53139;45.576;5.304;2023-03-11T03:41:46;6.82;98.85
66337;SHT30;53139;45.576;5.304;2023-03-11T03:45:29;6.91;97.99
66337;SHT30;53139;45.576;5.304;2023-03-11T03:49:10;6.89;99.70
66337;SHT30;53139;45.576;5.304;2023-03-11T03:52:42;6.86;99.51
66337;SHT30;53139;45.576;5.304;2023-03-11T03:56:36;6.91;99.77
66337;SHT30;53139;45.576;5.304;2023-03-11T04:00:13;6.89;99.99
66337;SHT30;53139;45.576;5.304;2023-03-11T04:03:45;6.88;99.99
66337;SHT30;53139;45.576;5.304;2023-03-11T04:07:15;6.89;99.99
66337;SHT30;53139;45.576;5.304;2023-03-11T04:10:37;6.93;99.99
66337;SHT30;53139;45.576;5.304;2023-03-11T04:14:10;6.99;99.67
66337;SHT30;53139;45.576;5.304;2023-03-11T04:17:46;6.97;99.99
66337;SHT30;53139;45.576;5.304;2023-03-11T04:21:28;7.03;99.52
66337;SHT30;53139;45.576;5.304;2023-03-11T04:25:03;7.05;99.94
66337;SHT30;53139;45.576;5.304;2023-03-11T04:28:36;7.14;99.96
66337;SHT30;53139;45.576;5.304;2023-03-11T04:32:12;7.14;99.74
66337;SHT30;53139;45.576;5.304;2023-03-11T04:35:44;7.22;99.50
66337;SHT30;53139;45.576;5.304;2023-03-11T04:39:21;7.33;99.95
66337;SHT30;53139;45.576;5.304;2023-03-11T04:43:08;7.31;99.89
66337;SHT30;53139;45.576;5.304;2023-03-11T04:46:51;7.43;99.81
66337;SHT30;53139;45.576;5.304;2023-03-11T04:50:32;7.47;99.86
66337;SHT30;53139;45.576;5.304;2023-03-11T04:54:15;7.43;99.99
66337;SHT30;53139;45.576;5.304;2023-03-11T04:57:55;7.43;99.79
66337;SHT30;53139;45.576;5.304;2023-03-11T05:01:29;7.43;99.38
66337;SHT30;53139;45.576;5.304;2023-03-11T05:05:11;7.38;99.39
66337;SHT30;53139;45.576;5.304;2023-03-11T05:08:51;7.27;99.99
66337;SHT30;53139;45.576;5.304;2023-03-11T05:12:27;7.33;99.84
66337;SHT30;53139;45.576;5.304;2023-03-11T05:16:01;7.19;99.99
66337;SHT30;53139;45.576;5.304;2023-03-11T05:19:26;7.27;99.99
66337;SHT30;53139;45.576;5.304;2023-03-11T05:23:02;7.22;99.99
66337;SHT30;53139;45.576;5.304;2023-03-11T05:26:42;7.27;99.99
66337;SHT30;53139;45.576;5.304;2023-03-11T05:30:18;7.31;99.99
66337;SHT30;53139;45.576;5.304;2023-03-11T05:33:58;7.34;99.71
66337;SHT30;53139;45.576;5.304;2023-03-11T05:37:34;7.23;99.99
66337;SHT30;53139;45.576;5.304;2023-03-11T05:41:09;7.34;99.47
66337;SHT30;53139;45.576;5.304;2023-03-11T05:44:54;7.41;99.38
66337;SHT30;53139;45.576;5.304;2023-03-11T05:48:33;7.44;99.78
66337;SHT30;53139;45.576;5.304;2023-03-11T05:52:19;7.48;99.52
66337;SHT30;53139;45.576;5.304;2023-03-11T05:56:19;7.47;99.38
66337;SHT30;53139;45.576;5.304;2023-03-11T05:59:46;7.51;99.33
66337;SHT30;53139;45.576;5.304;2023-03-11T06:03:07;7.51;99.60
66337;SHT30;53139;45.576;5.304;2023-03-11T06:06:32;7.40;99.79
66337;SHT30;53139;45.576;5.304;2023-03-11T06:09:49;7.35;99.63
66337;SHT30;53139;45.576;5.304;2023-03-11T06:13:15;7.44;99.41
66337;SHT30;53139;45.576;5.304;2023-03-11T06:16:33;7.30;99.94
66337;SHT30;53139;45.576;5.304;2023-03-11T06:19:40;7.31;99.99
66337;SHT30;53139;45.576;5.304;2023-03-11T06:22:52;7.47;99.43
66337;SHT30;53139;45.576;5.304;2023-03-11T06:26:04;7.30;99.99
66337;SHT30;53139;45.576;5.304;2023-03-11T06:29:15;7.16;99.99
66337;SHT30;53139;45.576;5.304;2023-03-11T06:32:25;7.09;99.99
66337;SHT30;53139;45.576;5.304;2023-03-11T06:35:26;7.17;99.99
66337;SHT30;53139;45.576;5.304;2023-03-11T06:38:34;7.12;99.99
66337;SHT30;53139;45.576;5.304;2023-03-11T06:41:34;7.05;99.99
66337;SHT30;53139;45.576;5.304;2023-03-11T06:44:35;7.06;99.99
66337;SHT30;53139;45.576;5.304;2023-03-11T06:47:35;7.12;99.99
66337;SHT30;53139;45.576;5.304;2023-03-11T06:50:36;7.00;99.99
66337;SHT30;53139;45.576;5.304;2023-03-11T06:53:36;7.05;99.99
66337;SHT30;53139;45.576;5.304;2023-03-11T06:56:37;6.96;99.99
66337;SHT30;53139;45.576;5.304;2023-03-11T06:59:37;7.12;99.99
66337;SHT30;53139;45.576;5.304;2023-03-11T07:02:38;7.19;99.99
66337;SHT30;53139;45.576;5.304;2023-03-11T07:05:38;7.20;99.99
66337;SHT30;53139;45.576;5.304;2023-03-11T07:08:38;7.38;99.99
66337;SHT30;53139;45.576;5.304;2023-03-11T07:11:39;7.35;99.87
66337;SHT30;53139;45.576;5.304;2023-03-11T07:14:39;7.40;99.99
66337;SHT30;53139;45.576;5.304;2023-03-11T07:17:40;7.50;99.99
66337;SHT30;53139;45.576;5.304;2023-03-11T07:20:40;7.58;99.99
66337;SHT30;53139;45.576;5.304;2023-03-11T07:23:40;7.55;99.99
66337;SHT30;53139;45.576;5.304;2023-03-11T07:26:41;7.65;99.69
66337;SHT30;53139;45.576;5.304;2023-03-11T07:29:41;7.74;99.17
66337;SHT30;53139;45.576;5.304;2023-03-11T07:32:42;7.74;99.74
66337;SHT30;53139;45.576;5.304;2023-03-11T07:35:42;7.90;99.58
66337;SHT30;53139;45.576;5.304;2023-03-11T07:38:44;8.00;99.38
66337;SHT30;53139;45.576;5.304;2023-03-11T07:41:45;7.97;98.93
66337;SHT30;53139;45.576;5.304;2023-03-11T07:44:45;8.07;99.72
66337;SHT30;53139;45.576;5.304;2023-03-11T07:47:45;8.16;99.10
66337;SHT30;53139;45.576;5.304;2023-03-11T07:50:46;8.31;99.54
66337;SHT30;53139;45.576;5.304;2023-03-11T07:53:47;8.27;99.39
66337;SHT30;53139;45.576;5.304;2023-03-11T07:56:48;8.33;99.36
66337;SHT30;53139;45.576;5.304;2023-03-11T07:59:48;8.44;98.84
66337;SHT30;53139;45.576;5.304;2023-03-11T08:02:49;8.40;98.92
66337;SHT30;53139;45.576;5.304;2023-03-11T08:05:50;8.44;98.67
66337;SHT30;53139;45.576;5.304;2023-03-11T08:08:50;8.55;99.42
66337;SHT30;53139;45.576;5.304;2023-03-11T08:11:51;8.65;98.73
66337;SHT30;53139;45.576;5.304;2023-03-11T08:14:51;8.65;98.26
66337;SHT30;53139;45.576;5.304;2023-03-11T08:17:51;8.73;98.14
66337;SHT30;53139;45.576;5.304;2023-03-11T08:20:52;8.64;98.52
66337;SHT30;53139;45.576;5.304;2023-03-11T08:23:59;8.68;98.20
66337;SHT30;53139;45.576;5.304;2023-03-11T08:26:59;8.67;98.67
66337;SHT30;53139;45.576;5.304;2023-03-11T08:30:00;8.60;98.72
66337;SHT30;53139;45.576;5.304;2023-03-11T08:33:00;8.42;99.07
66337;SHT30;53139;45.576;5.304;2023-03-11T08:36:01;8.51;99.88
66337;SHT30;53139;45.576;5.304;2023-03-11T08:39:01;8.45;98.76
66337;SHT30;53139;45.576;5.304;2023-03-11T08:42:02;8.61;99.15
66337;SHT30;53139;45.576;5.304;2023-03-11T08:45:03;8.78;98.05
66337;SHT30;53139;45.576;5.304;2023-03-11T08:48:04;8.67;98.38
66337;SHT30;53139;45.576;5.304;2023-03-11T08:51:09;8.82;98.23
66337;SHT30;53139;45.576;5.304;2023-03-11T08:54:10;8.95;97.97
66337;SHT30;53139;45.576;5.304;2023-03-11T08:57:10;8.61;98.09
66337;SHT30;53139;45.576;5.304;2023-03-11T09:00:11;8.65;98.10
66337;SHT30;53139;45.576;5.304;2023-03-11T09:03:12;8.93;98.43
66337;SHT30;53139;45.576;5.304;2023-03-11T09:06:14;8.97;96.98
66337;SHT30;53139;45.576;5.304;2023-03-11T09:09:15;9.24;96.72
66337;SHT30;53139;45.576;5.304;2023-03-11T09:12:16;9.50;97.10
66337;SHT30;53139;45.576;5.304;2023-03-11T09:15:16;9.40;96.76
66337;SHT30;53139;45.576;5.304;2023-03-11T09:18:17;9.48;95.70
66337;SHT30;53139;45.576;5.304;2023-03-11T09:21:18;9.65;96.34
66337;SHT30;53139;45.576;5.304;2023-03-11T09:24:19;9.81;95.62
66337;SHT30;53139;45.576;5.304;2023-03-11T09:27:19;9.93;94.97
66337;SHT30;53139;45.576;5.304;2023-03-11T09:30:20;9.65;96.15
66337;SHT30;53139;45.576;5.304;2023-03-11T09:33:20;9.82;95.50
66337;SHT30;53139;45.576;5.304;2023-03-11T09:36:21;10.05;95.28
66337;SHT30;53139;45.576;5.304;2023-03-11T09:39:21;9.98;95.24
66337;SHT30;53139;45.576;5.304;2023-03-11T09:42:34;10.07;95.26
66337;SHT30;53139;45.576;5.304;2023-03-11T09:45:44;10.18;93.18
66337;SHT30;53139;45.576;5.304;2023-03-11T09:52:50;9.83;95.42
66337;SHT30;53139;45.576;5.304;2023-03-11T09:55:56;10.33;94.61
66337;SHT30;53139;45.576;5.304;2023-03-11T09:59:04;10.43;94.57
66337;SHT30;53139;45.576;5.304;2023-03-11T10:02:05;10.37;94.14
66337;SHT30;53139;45.576;5.304;2023-03-11T10:05:14;10.60;94.27
66337;SHT30;53139;45.576;5.304;2023-03-11T10:08:28;10.76;93.01
66337;SHT30;53139;45.576;5.304;2023-03-11T10:18:52;10.96;91.17
66337;SHT30;53139;45.576;5.304;2023-03-11T10:22:26;10.91;92.29
66337;SHT30;53139;45.576;5.304;2023-03-11T10:25:53;11.26;92.22
66337;SHT30;53139;45.576;5.304;2023-03-11T10:32:23;11.20;93.85
66337;SHT30;53139;45.576;5.304;2023-03-11T10:35:41;11.38;92.31
66337;SHT30;53139;45.576;5.304;2023-03-11T10:38:46;10.99;93.15
66337;SHT30;53139;45.576;5.304;2023-03-11T10:41:54;11.28;92.14
66337;SHT30;53139;45.576;5.304;2023-03-11T10:44:55;11.27;91.58
66337;SHT30;53139;45.576;5.304;2023-03-11T10:47:55;11.38;91.61
66337;SHT30;53139;45.576;5.304;2023-03-11T10:51:02;11.37;92.89
66337;SHT30;53139;45.576;5.304;2023-03-11T10:54:03;11.71;91.92
66337;SHT30;53139;45.576;5.304;2023-03-11T10:57:18;11.86;93.18
66337;SHT30;53139;45.576;5.304;2023-03-11T11:00:28;12.17;91.83
66337;SHT30;53139;45.576;5.304;2023-03-11T11:03:29;12.02;91.83
66337;SHT30;53139;45.576;5.304;2023-03-11T11:06:34;11.89;89.92
66337;SHT30;53139;45.576;5.304;2023-03-11T11:09:35;11.89;91.95
66337;SHT30;53139;45.576;5.304;2023-03-11T11:12:36;12.00;90.41
66337;SHT30;53139;45.576;5.304;2023-03-11T11:15:39;11.62;90.49
66337;SHT30;53139;45.576;5.304;2023-03-11T11:18:56;12.48;89.22
66337;SHT30;53139;45.576;5.304;2023-03-11T11:22:02;12.68;90.01
66337;SHT30;53139;45.576;5.304;2023-03-11T11:25:33;13.24;87.53
66337;SHT30;53139;45.576;5.304;2023-03-11T11:28:34;13.26;86.68
66337;SHT30;53139;45.576;5.304;2023-03-11T11:31:43;12.84;85.97
66337;SHT30;53139;45.576;5.304;2023-03-11T11:38:08;12.53;89.74
66337;SHT30;53139;45.576;5.304;2023-03-11T11:41:16;12.51;87.60
66337;SHT30;53139;45.576;5.304;2023-03-11T11:44:20;12.85;89.48
66337;SHT30;53139;45.576;5.304;2023-03-11T11:47:26;13.15;88.33
66337;SHT30;53139;45.576;5.304;2023-03-11T11:50:40;13.86;84.89
66337;SHT30;53139;45.576;5.304;2023-03-11T11:54:12;13.48;86.40
66337;SHT30;53139;45.576;5.304;2023-03-11T11:57:16;13.32;85.39
66337;SHT30;53139;45.576;5.304;2023-03-11T12:00:22;12.41;87.01
66337;SHT30;53139;45.576;5.304;2023-03-11T12:07:03;12.78;87.60
66337;SHT30;53139;45.576;5.304;2023-03-11T12:14:12;13.65;85.60
66337;SHT30;53139;45.576;5.304;2023-03-11T12:17:07;13.39;86.05
66337;SHT30;53139;45.576;5.304;2023-03-11T12:20:36;12.84;87.14
66337;SHT30;53139;45.576;5.304;2023-03-11T12:23:47;12.93;87.45
66337;SHT30;53139;45.576;5.304;2023-03-11T12:26:51;12.62;89.24
66337;SHT30;53139;45.576;5.304;2023-03-11T12:30:12;12.47;87.78
66337;SHT30;53139;45.576;5.304;2023-03-11T12:33:35;12.53;87.35
66337;SHT30;53139;45.576;5.304;2023-03-11T12:36:43;12.65;87.92
66337;SHT30;53139;45.576;5.304;2023-03-11T12:39:44;12.89;87.38
66337;SHT30;53139;45.576;5.304;2023-03-11T12:42:44;12.48;86.84
66337;SHT30;53139;45.576;5.304;2023-03-11T12:45:50;12.08;89.08
66337;SHT30;53139;45.576;5.304;2023-03-11T12:49:10;12.15;87.85
66337;SHT30;53139;45.576;5.304;2023-03-11T13:05:06;12.27;86.90
66337;SHT30;53139;45.576;5.304;2023-03-11T13:08:18;12.06;89.67
66337;SHT30;53139;45.576;5.304;2023-03-11T13:14:33;12.32;87.93
66337;SHT30;53139;45.576;5.304;2023-03-11T13:17:34;12.05;88.64
66337;SHT30;53139;45.576;5.304;2023-03-11T13:23:42;11.96;88.03
66337;SHT30;53139;45.576;5.304;2023-03-11T13:43:02;12.40;88.44
66337;SHT30;53139;45.576;5.304;2023-03-11T13:46:07;12.25;88.74
66337;SHT30;53139;45.576;5.304;2023-03-11T13:52:32;12.20;88.88
66337;SHT30;53139;45.576;5.304;2023-03-11T13:55:38;12.51;87.56
66337;SHT30;53139;45.576;5.304;2023-03-11T13:58:40;12.47;87.27
66337;SHT30;53139;45.576;5.304;2023-03-11T14:01:48;12.43;88.45
66337;SHT30;53139;45.576;5.304;2023-03-11T14:04:52;11.98;87.35
66337;SHT30;53139;45.576;5.304;2023-03-11T14:07:53;11.75;88.27
66337;SHT30;53139;45.576;5.304;2023-03-11T14:13:59;12.03;88.37
66337;SHT30;53139;45.576;5.304;2023-03-11T14:17:02;12.08;88.34
66337;SHT30;53139;45.576;5.304;2023-03-11T14:23:17;12.09;88.49
66337;SHT30;53139;45.576;5.304;2023-03-11T14:26:29;12.00;88.67
66337;SHT30;53139;45.576;5.304;2023-03-11T14:29:38;12.53;86.71
66337;SHT30;53139;45.576;5.304;2023-03-11T14:32:39;13.08;86.70
66337;SHT30;53139;45.576;5.304;2023-03-11T14:35:39;13.02;84.46
66337;SHT30;53139;45.576;5.304;2023-03-11T14:38:42;12.64;87.78
66337;SHT30;53139;45.576;5.304;2023-03-11T14:41:43;12.41;87.07
66337;SHT30;53139;45.576;5.304;2023-03-11T14:44:56;12.06;86.81
66337;SHT30;53139;45.576;5.304;2023-03-11T14:48:11;11.64;87.42
66337;SHT30;53139;45.576;5.304;2023-03-11T14:51:19;11.78;88.20
66337;SHT30;53139;45.576;5.304;2023-03-11T14:54:24;11.81;87.99
66337;SHT30;53139;45.576;5.304;2023-03-11T14:57:53;12.09;88.33
66337;SHT30;53139;45.576;5.304;2023-03-11T15:04:11;11.95;88.08
66337;SHT30;53139;45.576;5.304;2023-03-11T15:07:12;12.51;86.64
66337;SHT30;53139;45.576;5.304;2023-03-11T15:10:13;12.51;86.00
66337;SHT30;53139;45.576;5.304;2023-03-11T15:13:14;12.20;86.65
66337;SHT30;53139;45.576;5.304;2023-03-11T15:22:34;11.09;92.26
66337;SHT30;53139;45.576;5.304;2023-03-11T15:25:37;10.89;92.30
66337;SHT30;53139;45.576;5.304;2023-03-11T15:28:38;11.10;91.38
66337;SHT30;53139;45.576;5.304;2023-03-11T15:31:40;11.48;90.57
66337;SHT30;53139;45.576;5.304;2023-03-11T15:34:41;11.43;89.09
66337;SHT30;53139;45.576;5.304;2023-03-11T15:37:43;11.50;91.12
66337;SHT30;53139;45.576;5.304;2023-03-11T15:40:54;11.55;90.22
66337;SHT30;53139;45.576;5.304;2023-03-11T15:43:56;11.57;91.93
66337;SHT30;53139;45.576;5.304;2023-03-11T15:47:02;11.51;91.23
66337;SHT30;53139;45.576;5.304;2023-03-11T15:50:16;11.35;90.66
66337;SHT30;53139;45.576;5.304;2023-03-11T15:53:18;11.10;92.58
66337;SHT30;53139;45.576;5.304;2023-03-11T15:56:23;10.96;92.84
66337;SHT30;53139;45.576;5.304;2023-03-11T15:59:24;10.86;92.95
66337;SHT30;53139;45.576;5.304;2023-03-11T16:02:27;11.34;93.64
66337;SHT30;53139;45.576;5.304;2023-03-11T16:05:28;11.17;93.83
66337;SHT30;53139;45.576;5.304;2023-03-11T16:08:28;10.86;94.03
66337;SHT30;53139;45.576;5.304;2023-03-11T16:11:28;10.60;94.79
66337;SHT30;53139;45.576;5.304;2023-03-11T16:14:31;10.29;95.27
66337;SHT30;53139;45.576;5.304;2023-03-11T16:17:32;10.48;95.91
66337;SHT30;53139;45.576;5.304;2023-03-11T16:20:40;10.26;95.31
66337;SHT30;53139;45.576;5.304;2023-03-11T16:23:41;10.64;95.32
66337;SHT30;53139;45.576;5.304;2023-03-11T16:26:42;10.50;94.47
66337;SHT30;53139;45.576;5.304;2023-03-11T16:29:43;10.51;94.74
66337;SHT30;53139;45.576;5.304;2023-03-11T16:32:44;10.50;94.76
66337;SHT30;53139;45.576;5.304;2023-03-11T16:35:45;10.48;95.26
66337;SHT30;53139;45.576;5.304;2023-03-11T16:38:47;10.57;94.90
66337;SHT30;53139;45.576;5.304;2023-03-11T16:41:48;10.47;94.55
66337;SHT30;53139;45.576;5.304;2023-03-11T16:44:49;10.57;95.45
66337;SHT30;53139;45.576;5.304;2023-03-11T16:47:49;10.51;94.52
66337;SHT30;53139;45.576;5.304;2023-03-11T16:50:50;10.50;94.41
66337;SHT30;53139;45.576;5.304;2023-03-11T16:53:50;10.45;95.07
66337;SHT30;53139;45.576;5.304;2023-03-11T16:56:51;10.43;95.14
66337;SHT30;53139;45.576;5.304;2023-03-11T16:59:51;10.41;95.13
66337;SHT30;53139;45.576;5.304;2023-03-11T17:02:51;10.36;95.50
66337;SHT30;53139;45.576;5.304;2023-03-11T17:06:00;10.30;95.83
66337;SHT30;53139;45.576;5.304;2023-03-11T17:09:00;10.33;95.65
66337;SHT30;53139;45.576;5.304;2023-03-11T17:12:02;10.33;96.05
66337;SHT30;53139;45.576;5.304;2023-03-11T17:15:04;10.32;95.62
66337;SHT30;53139;45.576;5.304;2023-03-11T17:18:05;10.26;96.68
66337;SHT30;53139;45.576;5.304;2023-03-11T17:21:07;10.10;96.62
66337;SHT30;53139;45.576;5.304;2023-03-11T17:24:09;10.16;96.75
66337;SHT30;53139;45.576;5.304;2023-03-11T17:27:09;10.07;97.35
66337;SHT30;53139;45.576;5.304;2023-03-11T17:30:11;9.90;97.30
66337;SHT30;53139;45.576;5.304;2023-03-11T17:33:11;9.98;97.54
66337;SHT30;53139;45.576;5.304;2023-03-11T17:36:14;9.96;97.13
66337;SHT30;53139;45.576;5.304;2023-03-11T17:39:15;9.89;97.34
66337;SHT30;53139;45.576;5.304;2023-03-11T17:42:16;9.88;98.03
66337;SHT30;53139;45.576;5.304;2023-03-11T17:45:16;9.88;97.69
66337;SHT30;53139;45.576;5.304;2023-03-11T17:48:17;9.90;97.78
66337;SHT30;53139;45.576;5.304;2023-03-11T17:51:20;9.85;97.04
66337;SHT30;53139;45.576;5.304;2023-03-11T17:54:21;9.89;97.10
66337;SHT30;53139;45.576;5.304;2023-03-11T17:57:21;9.81;97.61
66337;SHT30;53139;45.576;5.304;2023-03-11T18:00:22;9.79;97.84
66337;SHT30;53139;45.576;5.304;2023-03-11T18:03:23;9.79;97.93
66337;SHT30;53139;45.576;5.304;2023-03-11T18:06:23;9.67;98.15
66337;SHT30;53139;45.576;5.304;2023-03-11T18:09:24;9.75;98.39
66337;SHT30;53139;45.576;5.304;2023-03-11T18:12:24;9.54;98.29
66337;SHT30;53139;45.576;5.304;2023-03-11T18:15:25;9.45;98.82
66337;SHT30;53139;45.576;5.304;2023-03-11T18:18:26;9.34;98.99
66337;SHT30;53139;45.576;5.304;2023-03-11T18:21:29;9.33;99.10
66337;SHT30;53139;45.576;5.304;2023-03-11T18:24:29;9.23;98.79
66337;SHT30;53139;45.576;5.304;2023-03-11T18:27:30;9.26;99.74
66337;SHT30;53139;45.576;5.304;2023-03-11T18:30:30;9.35;99.52
66337;SHT30;53139;45.576;5.304;2023-03-11T18:33:31;9.41;99.36
66337;SHT30;53139;45.576;5.304;2023-03-11T18:36:34;9.48;99.44
66337;SHT30;53139;45.576;5.304;2023-03-11T18:39:35;9.51;99.33
66337;SHT30;53139;45.576;5.304;2023-03-11T18:42:35;9.54;99.42
66337;SHT30;53139;45.576;5.304;2023-03-11T18:45:37;9.59;99.24
66337;SHT30;53139;45.576;5.304;2023-03-11T18:48:38;9.55;99.40
66337;SHT30;53139;45.576;5.304;2023-03-11T18:51:38;9.61;99.54
66337;SHT30;53139;45.576;5.304;2023-03-11T18:54:40;9.62;99.25
66337;SHT30;53139;45.576;5.304;2023-03-11T18:57:40;9.65;99.20
66337;SHT30;53139;45.576;5.304;2023-03-11T19:00:42;9.61;99.57
66337;SHT30;53139;45.576;5.304;2023-03-11T19:03:44;9.71;99.61
66337;SHT30;53139;45.576;5.304;2023-03-11T19:06:47;9.74;99.19
66337;SHT30;53139;45.576;5.304;2023-03-11T19:09:49;9.74;99.32
66337;SHT30;53139;45.576;5.304;2023-03-11T19:12:49;9.74;99.35
66337;SHT30;53139;45.576;5.304;2023-03-11T19:15:50;9.74;99.47
66337;SHT30;53139;45.576;5.304;2023-03-11T19:18:52;9.75;99.08
66337;SHT30;53139;45.576;5.304;2023-03-11T19:21:54;9.78;99.04
66337;SHT30;53139;45.576;5.304;2023-03-11T19:24:54;9.75;98.84
66337;SHT30;53139;45.576;5.304;2023-03-11T19:27:55;9.79;98.59
66337;SHT30;53139;45.576;5.304;2023-03-11T19:30:57;9.77;98.78
66337;SHT30;53139;45.576;5.304;2023-03-11T19:33:57;9.79;98.97
66337;SHT30;53139;45.576;5.304;2023-03-11T19:36:58;9.81;98.75
66337;SHT30;53139;45.576;5.304;2023-03-11T19:39:59;9.81;99.00
66337;SHT30;53139;45.576;5.304;2023-03-11T19:42:59;9.74;99.23
66337;SHT30;53139;45.576;5.304;2023-03-11T19:46:00;9.77;99.49
66337;SHT30;53139;45.576;5.304;2023-03-11T19:49:02;9.72;99.69
66337;SHT30;53139;45.576;5.304;2023-03-11T19:52:02;9.78;99.50
66337;SHT30;53139;45.576;5.304;2023-03-11T19:55:08;9.78;99.76
66337;SHT30;53139;45.576;5.304;2023-03-11T19:58:09;9.78;99.71
66337;SHT30;53139;45.576;5.304;2023-03-11T20:01:17;9.77;99.80
66337;SHT30;53139;45.576;5.304;2023-03-11T20:04:18;9.77;99.46
66337;SHT30;53139;45.576;5.304;2023-03-11T20:07:19;9.83;98.96
66337;SHT30;53139;45.576;5.304;2023-03-11T20:10:19;9.77;99.57
66337;SHT30;53139;45.576;5.304;2023-03-11T20:13:20;9.79;99.40
66337;SHT30;53139;45.576;5.304;2023-03-11T20:16:21;9.74;99.80
66337;SHT30;53139;45.576;5.304;2023-03-11T20:19:21;9.72;99.61
66337;SHT30;53139;45.576;5.304;2023-03-11T20:22:22;9.78;99.59
66337;SHT30;53139;45.576;5.304;2023-03-11T20:25:22;9.78;99.48
66337;SHT30;53139;45.576;5.304;2023-03-11T20:28:24;9.78;99.77
66337;SHT30;53139;45.576;5.304;2023-03-11T20:31:26;9.71;99.58
66337;SHT30;53139;45.576;5.304;2023-03-11T20:34:26;9.69;99.99
66337;SHT30;53139;45.576;5.304;2023-03-11T20:37:28;9.63;99.99
66337;SHT30;53139;45.576;5.304;2023-03-11T20:40:29;9.74;99.40
66337;SHT30;53139;45.576;5.304;2023-03-11T20:43:29;9.74;99.60
66337;SHT30;53139;45.576;5.304;2023-03-11T20:46:32;9.72;99.93
66337;SHT30;53139;45.576;5.304;2023-03-11T20:49:33;9.62;99.99
66337;SHT30;53139;45.576;5.304;2023-03-11T20:52:33;9.57;99.99
66337;SHT30;53139;45.576;5.304;2023-03-11T20:55:37;9.57;99.99
66337;SHT30;53139;45.576;5.304;2023-03-11T20:58:41;9.55;99.99
66337;SHT30;53139;45.576;5.304;2023-03-11T21:01:45;9.61;99.99
66337;SHT30;53139;45.576;5.304;2023-03-11T21:05:00;9.68;99.99
66337;SHT30;53139;45.576;5.304;2023-03-11T21:08:16;9.63;99.99
66337;SHT30;53139;45.576;5.304;2023-03-11T21:11:56;9.67;99.99
66337;SHT30;53139;45.576;5.304;2023-03-11T21:15:15;9.69;99.99
66337;SHT30;53139;45.576;5.304;2023-03-11T21:18:21;9.62;99.99
66337;SHT30;53139;45.576;5.304;2023-03-11T21:21:38;9.67;99.99
66337;SHT30;53139;45.576;5.304;2023-03-11T21:25:13;9.72;99.99
66337;SHT30;53139;45.576;5.304;2023-03-11T21:28:19;9.67;99.66
66337;SHT30;53139;45.576;5.304;2023-03-11T21:31:30;9.63;99.54
66337;SHT30;53139;45.576;5.304;2023-03-11T21:34:47;9.67;99.56
66337;SHT30;53139;45.576;5.304;2023-03-11T21:37:48;9.69;99.33
66337;SHT30;53139;45.576;5.304;2023-03-11T21:40:52;9.69;99.44
66337;SHT30;53139;45.576;5.304;2023-03-11T21:43:57;9.72;99.14